Time;durP1;ratioP1;P1;durP2;ratioP2;P2;SDS_P1;SDS_P2;PMS_P1;PMS_P2;Temp;Humidity;BMP_temperature;BMP_pressure;BME280_temperature;BME280_humidity;BME280_pressure;Samples;Min_cycle;Max_cycle;Signal;HPM_P1;HPM_P2
2022/02/19 00:00:50;;;;;;;20.45;10.13;;;0.30;99.90;;;;;;4958859;28;20023;-91
2022/02/19 00:03:16;;;;;;;18.13;9.77;;;0.30;99.90;;;;;;4958974;28;20023;-91
2022/02/19 00:05:43;;;;;;;24.10;10.88;;;0.30;99.90;;;;;;4958947;28;20019;-91
2022/02/19 00:08:11;;;;;;;19.70;10.07;;;0.20;99.90;;;;;;4976296;28;20030;-91
2022/02/19 00:10:38;;;;;;;21.92;10.20;;;0.20;99.90;;;;;;4943408;28;20031;-91
2022/02/19 00:13:03;;;;;;;26.10;10.88;;;0.20;99.90;;;;;;4958845;28;20023;-90
2022/02/19 00:15:30;;;;;;;26.95;11.38;;;0.30;99.90;;;;;;4975938;28;20070;-90
2022/02/19 00:17:57;;;;;;;20.85;10.80;;;0.30;99.90;;;;;;4958664;28;20043;-91
2022/02/19 00:20:23;;;;;;;24.90;11.35;;;0.30;99.90;;;;;;4958763;28;20023;-91
2022/02/19 00:22:48;;;;;;;25.08;12.45;;;0.30;99.90;;;;;;4958712;28;20088;-91
2022/02/19 00:25:14;;;;;;;28.00;13.57;;;0.30;99.90;;;;;;4958783;28;20070;-90
2022/02/19 00:27:41;;;;;;;23.52;12.80;;;0.20;99.90;;;;;;4958603;28;20042;-91
2022/02/19 00:30:07;;;;;;;25.63;14.13;;;0.20;99.90;;;;;;4958622;28;20389;-90
2022/02/19 00:32:35;;;;;;;32.88;15.88;;;0.20;99.90;;;;;;4958844;28;20034;-90
2022/02/19 00:35:01;;;;;;;27.55;14.52;;;0.20;99.90;;;;;;4958768;28;20027;-90
2022/02/19 00:37:28;;;;;;;30.73;14.23;;;0.20;99.90;;;;;;4958519;28;20035;-91
2022/02/19 00:39:53;;;;;;;26.80;12.93;;;0.20;99.90;;;;;;4942601;28;20038;-91
2022/02/19 00:42:20;;;;;;;27.23;12.32;;;0.20;99.90;;;;;;4958464;28;20045;-90
2022/02/19 00:44:46;;;;;;;25.05;13.10;;;0.10;99.90;;;;;;4958934;28;20410;-91
2022/02/19 00:47:12;;;;;;;28.38;13.75;;;0.10;99.90;;;;;;4958178;28;20077;-90
2022/02/19 00:49:39;;;;;;;24.88;14.00;;;0.10;99.90;;;;;;4958064;28;20486;-90
2022/02/19 00:52:05;;;;;;;38.08;17.38;;;0.00;99.90;;;;;;4975936;28;20037;-91
2022/02/19 00:54:31;;;;;;;36.67;16.60;;;0.00;99.90;;;;;;4975458;28;20035;-90
2022/02/19 00:56:57;;;;;;;40.97;17.13;;;0.00;99.90;;;;;;4958428;28;20169;-90
2022/02/19 00:59:22;;;;;;;32.55;16.05;;;0.00;99.90;;;;;;4958348;28;20031;-90
2022/02/19 01:01:48;;;;;;;38.42;18.90;;;0.00;99.90;;;;;;4942472;28;20023;-91
2022/02/19 01:04:14;;;;;;;37.30;18.77;;;0.00;99.90;;;;;;4958352;28;20023;-91
2022/02/19 01:06:40;;;;;;;45.58;22.55;;;0.00;99.90;;;;;;4957402;28;20061;-91
2022/02/19 01:09:06;;;;;;;66.35;24.90;;;-0.10;99.90;;;;;;4975653;28;20035;-90
2022/02/19 01:11:33;;;;;;;84.50;41.30;;;-0.10;99.90;;;;;;4958406;28;20023;-90
2022/02/19 01:13:59;;;;;;;65.45;32.80;;;-0.10;99.90;;;;;;4958463;28;20408;-91
2022/02/19 01:16:25;;;;;;;64.63;34.33;;;-0.10;99.90;;;;;;4926705;28;20039;-91
2022/02/19 01:18:52;;;;;;;77.55;40.30;;;-0.10;99.90;;;;;;4975091;28;20505;-91
2022/02/19 01:21:19;;;;;;;61.40;31.65;;;-0.10;99.90;;;;;;4958024;28;20106;-91
2022/02/19 01:23:45;;;;;;;48.33;25.00;;;-0.20;99.90;;;;;;4975221;28;20098;-91
2022/02/19 01:26:11;;;;;;;48.35;27.63;;;-0.10;99.90;;;;;;4958000;28;20121;-91
2022/02/19 01:28:37;;;;;;;44.55;22.23;;;-0.10;99.90;;;;;;4957796;28;20038;-91
2022/02/19 01:31:05;;;;;;;42.03;21.88;;;-0.10;99.90;;;;;;4958104;28;20074;-91
2022/02/19 01:33:32;;;;;;;42.97;20.55;;;-0.20;99.90;;;;;;4973760;28;20041;-91
2022/02/19 01:35:58;;;;;;;41.95;22.50;;;-0.10;99.90;;;;;;4941935;28;20114;-91
2022/02/19 01:38:24;;;;;;;41.00;23.42;;;-0.10;99.90;;;;;;4941889;28;20178;-90
2022/02/19 01:40:51;;;;;;;48.80;22.63;;;-0.20;99.90;;;;;;4942164;28;20027;-91
2022/02/19 01:43:17;;;;;;;45.97;21.60;;;-0.20;99.90;;;;;;4957877;28;20078;-91
2022/02/19 01:45:46;;;;;;;44.70;23.58;;;-0.20;99.90;;;;;;4975303;28;20027;-91
2022/02/19 01:48:14;;;;;;;39.42;20.95;;;-0.20;99.90;;;;;;4974488;28;20042;-91
2022/02/19 01:50:40;;;;;;;42.95;22.02;;;-0.20;99.90;;;;;;4957894;28;20038;-91
2022/02/19 01:53:06;;;;;;;43.88;21.67;;;-0.30;99.90;;;;;;4957662;28;20436;-91
2022/02/19 01:55:32;;;;;;;41.83;21.00;;;-0.30;99.90;;;;;;4958162;28;20037;-91
2022/02/19 01:57:58;;;;;;;41.00;20.27;;;-0.30;99.90;;;;;;4957830;28;20026;-91
2022/02/19 02:00:24;;;;;;;38.05;18.38;;;-0.30;99.90;;;;;;4958038;28;20034;-91
2022/02/19 02:02:52;;;;;;;31.70;17.60;;;-0.30;99.90;;;;;;4959673;28;20023;-91
2022/02/19 02:05:18;;;;;;;31.10;15.82;;;-0.30;99.90;;;;;;4978345;28;20023;-91
2022/02/19 02:07:44;;;;;;;49.90;23.85;;;-0.40;99.90;;;;;;4960687;28;20026;-91
2022/02/19 02:10:10;;;;;;;66.35;32.60;;;-0.40;99.90;;;;;;4978423;28;20026;-91
2022/02/19 02:12:36;;;;;;;76.55;37.70;;;-0.40;99.90;;;;;;4960660;28;20482;-91
2022/02/19 02:15:02;;;;;;;44.47;23.80;;;-0.40;99.90;;;;;;4978270;28;20090;-91
2022/02/19 02:17:28;;;;;;;42.90;21.10;;;-0.40;99.90;;;;;;4978265;28;20110;-91
2022/02/19 02:19:55;;;;;;;42.13;20.95;;;-0.40;99.90;;;;;;4977932;28;20050;-91
2022/02/19 02:22:21;;;;;;;41.13;20.35;;;-0.40;99.90;;;;;;4978056;28;20097;-90
2022/02/19 02:24:47;;;;;;;36.13;17.05;;;-0.40;99.90;;;;;;4961104;28;20058;-91
2022/02/19 02:27:13;;;;;;;28.92;15.25;;;-0.30;99.90;;;;;;4978058;28;20023;-91
2022/02/19 02:29:46;;;;;;;31.88;16.67;;;-0.30;99.90;;;;;;4960714;28;20038;-91
2022/02/19 02:32:13;;;;;;;33.85;17.80;;;-0.30;99.90;;;;;;4960453;28;20027;-90
2022/02/19 02:34:56;;;;;;;32.70;16.13;;;-0.30;99.90;;;;;;4960456;28;20023;-90
2022/02/19 02:37:22;;;;;;;27.63;14.55;;;-0.40;99.90;;;;;;4961132;28;20433;-90
2022/02/19 02:39:48;;;;;;;27.65;15.25;;;-0.30;99.90;;;;;;4960650;28;20413;-91
2022/02/19 02:42:15;;;;;;;28.40;15.32;;;-0.30;99.90;;;;;;4960325;28;20043;-90
2022/02/19 02:44:42;;;;;;;27.83;14.70;;;-0.30;99.90;;;;;;4960490;28;20026;-91
2022/02/19 02:47:09;;;;;;;37.92;17.38;;;-0.30;99.90;;;;;;4960599;28;20023;-91
2022/02/19 02:49:35;;;;;;;30.40;15.95;;;-0.30;99.90;;;;;;4944578;28;20035;-91
2022/02/19 02:52:01;;;;;;;34.13;15.68;;;-0.30;99.90;;;;;;4960341;28;20030;-90
2022/02/19 02:54:27;;;;;;;25.88;15.63;;;-0.20;99.90;;;;;;4959913;28;20031;-91
2022/02/19 02:56:57;;;;;;;36.70;18.38;;;-0.20;99.90;;;;;;4977500;28;20589;-90
2022/02/19 02:59:23;;;;;;;44.58;20.95;;;-0.20;99.90;;;;;;4960082;28;20487;-91
2022/02/19 03:01:48;;;;;;;61.28;30.48;;;-0.20;99.90;;;;;;4944386;28;20065;-91
2022/02/19 03:04:14;;;;;;;63.65;31.02;;;-0.20;99.90;;;;;;4959770;28;20429;-91
2022/02/19 03:06:40;;;;;;;63.20;32.47;;;-0.10;99.90;;;;;;4977293;28;20474;-91
2022/02/19 03:09:06;;;;;;;49.65;25.48;;;-0.10;99.90;;;;;;4959639;28;20118;-91
2022/02/19 03:11:32;;;;;;;39.33;20.50;;;-0.10;99.90;;;;;;4944157;28;20470;-90
2022/02/19 03:13:57;;;;;;;37.47;20.05;;;-0.10;99.90;;;;;;4976599;28;20031;-92
2022/02/19 03:16:23;;;;;;;31.92;15.40;;;0.00;99.90;;;;;;4959821;28;20026;-91
2022/02/19 03:18:49;;;;;;;32.40;14.27;;;0.00;99.90;;;;;;4957399;28;20082;-91
2022/02/19 03:21:14;;;;;;;27.75;13.70;;;0.10;99.90;;;;;;4959863;28;20035;-91
2022/02/19 03:23:40;;;;;;;30.90;14.45;;;0.00;99.90;;;;;;4959899;28;20081;-91
2022/02/19 03:26:07;;;;;;;32.60;16.25;;;0.10;99.90;;;;;;4959526;28;20031;-91
2022/02/19 03:28:34;;;;;;;33.35;16.60;;;0.10;99.90;;;;;;4959715;28;20126;-91
2022/02/19 03:31:00;;;;;;;23.42;13.20;;;0.10;99.90;;;;;;4959652;28;20399;-91
2022/02/19 03:33:26;;;;;;;31.25;13.77;;;0.10;99.90;;;;;;4976658;28;20106;-90
2022/02/19 03:35:54;;;;;;;28.17;14.25;;;0.10;99.90;;;;;;4959476;28;20023;-91
2022/02/19 03:38:21;;;;;;;27.52;14.95;;;0.10;99.90;;;;;;4959662;28;20058;-90
2022/02/19 03:40:47;;;;;;;30.73;15.32;;;0.10;99.90;;;;;;4959677;28;20033;-91
2022/02/19 03:43:14;;;;;;;28.63;15.60;;;0.10;99.90;;;;;;4976480;28;20054;-91
2022/02/19 03:45:43;;;;;;;28.25;15.57;;;0.10;99.90;;;;;;4975876;28;20111;-92
2022/02/19 03:48:10;;;;;;;35.97;17.85;;;0.10;99.90;;;;;;4959171;28;20045;-91
2022/02/19 03:50:36;;;;;;;40.53;18.15;;;0.10;99.90;;;;;;4958839;28;20023;-91
2022/02/19 03:53:03;;;;;;;30.45;14.35;;;0.10;99.90;;;;;;4959271;28;20086;-91
2022/02/19 03:55:30;;;;;;;27.50;13.25;;;0.10;99.90;;;;;;4959239;28;20050;-91
2022/02/19 03:57:56;;;;;;;29.38;15.77;;;0.10;99.90;;;;;;4959270;28;20023;-92
2022/02/19 04:00:22;;;;;;;41.25;20.25;;;0.20;99.90;;;;;;4958765;28;20023;-92
2022/02/19 04:02:48;;;;;;;42.92;21.25;;;0.20;99.90;;;;;;4959375;28;20019;-91
2022/02/19 04:05:16;;;;;;;57.88;31.55;;;0.20;99.90;;;;;;4959049;28;20030;-91
2022/02/19 04:07:45;;;;;;;38.30;19.73;;;0.20;99.90;;;;;;4943578;28;20038;-92
2022/02/19 04:10:11;;;;;;;31.05;16.63;;;0.30;99.90;;;;;;4958764;28;20038;-90
2022/02/19 04:12:37;;;;;;;28.10;14.57;;;0.30;99.90;;;;;;4975715;28;20113;-90
2022/02/19 04:15:04;;;;;;;25.48;13.10;;;0.30;99.90;;;;;;4958509;28;20027;-92
2022/02/19 04:17:29;;;;;;;22.52;11.95;;;0.40;99.90;;;;;;4958911;28;20098;-91
2022/02/19 04:19:55;;;;;;;22.42;12.48;;;0.40;99.90;;;;;;4958486;28;20607;-90
2022/02/19 04:22:23;;;;;;;25.58;12.25;;;0.50;99.90;;;;;;4943068;28;20065;-90
2022/02/19 04:24:49;;;;;;;25.65;13.43;;;0.50;99.90;;;;;;4958245;28;20023;-90
2022/02/19 04:27:17;;;;;;;27.48;13.85;;;0.60;99.90;;;;;;4958670;28;20026;-90
2022/02/19 04:29:44;;;;;;;24.20;13.32;;;0.60;99.90;;;;;;4942813;28;20504;-91
2022/02/19 04:32:10;;;;;;;25.10;13.60;;;0.60;99.90;;;;;;4958521;28;20031;-91
2022/02/19 04:34:38;;;;;;;29.27;14.80;;;0.70;99.90;;;;;;4958535;28;20089;-90
2022/02/19 04:37:04;;;;;;;28.50;15.15;;;0.70;99.90;;;;;;4958486;28;20030;-90
2022/02/19 04:39:30;;;;;;;29.92;16.05;;;0.70;99.90;;;;;;4958360;28;20041;-91
2022/02/19 04:41:57;;;;;;;32.28;16.88;;;0.70;99.90;;;;;;4959185;28;20385;-91
2022/02/19 04:44:22;;;;;;;32.38;17.15;;;0.80;99.90;;;;;;4958754;28;20105;-91
2022/02/19 04:46:48;;;;;;;37.28;18.15;;;0.80;99.90;;;;;;4958291;28;20050;-91
2022/02/19 04:49:15;;;;;;;38.70;17.75;;;0.80;99.90;;;;;;4958640;28;20023;-90
2022/02/19 04:51:41;;;;;;;25.08;14.98;;;0.90;99.90;;;;;;4958408;28;20030;-91
2022/02/19 04:54:07;;;;;;;22.52;12.35;;;0.90;99.90;;;;;;4942783;28;20979;-91
2022/02/19 04:56:32;;;;;;;18.13;11.50;;;0.90;99.90;;;;;;4958355;28;20031;-91
2022/02/19 04:58:59;;;;;;;24.50;12.57;;;0.90;99.90;;;;;;4958127;28;20031;-91
2022/02/19 05:01:25;;;;;;;27.85;13.02;;;0.90;99.90;;;;;;4958334;28;20062;-92
2022/02/19 05:03:53;;;;;;;26.45;13.52;;;0.90;99.90;;;;;;4958346;28;20058;-92
2022/02/19 05:06:19;;;;;;;21.73;12.85;;;1.00;99.90;;;;;;4958353;28;20034;-92
2022/02/19 05:08:46;;;;;;;20.80;12.57;;;1.10;99.90;;;;;;4958305;28;20105;-91
2022/02/19 05:11:12;;;;;;;22.10;12.00;;;1.10;99.90;;;;;;4958988;28;20520;-91
2022/02/19 05:13:38;;;;;;;18.95;11.27;;;1.10;99.90;;;;;;4958341;28;20069;-91
2022/02/19 05:16:04;;;;;;;21.05;11.13;;;1.20;99.90;;;;;;4958095;28;20118;-91
2022/02/19 05:18:30;;;;;;;21.27;10.63;;;1.10;99.90;;;;;;4957492;28;20047;-91
2022/02/19 05:20:55;;;;;;;21.52;9.68;;;1.20;99.90;;;;;;4957610;28;20030;-91
2022/02/19 05:23:21;;;;;;;19.15;9.45;;;1.20;99.90;;;;;;4957787;28;20026;-91
2022/02/19 05:25:48;;;;;;;19.17;10.32;;;1.30;99.90;;;;;;4958560;28;20027;-92
2022/02/19 05:28:14;;;;;;;17.42;9.73;;;1.30;99.90;;;;;;4958182;28;20532;-91
2022/02/19 05:30:40;;;;;;;22.95;10.63;;;1.40;99.90;;;;;;4957714;28;20071;-91
2022/02/19 05:33:06;;;;;;;18.15;9.77;;;1.40;99.90;;;;;;4958137;28;20114;-90
2022/02/19 05:35:33;;;;;;;19.17;9.68;;;1.50;99.90;;;;;;4975373;28;20469;-92
2022/02/19 05:37:58;;;;;;;22.23;11.05;;;1.50;99.90;;;;;;4960032;28;20034;-90
2022/02/19 05:40:25;;;;;;;20.38;11.07;;;1.50;99.90;;;;;;4961213;28;20109;-91
2022/02/19 05:42:50;;;;;;;18.90;9.88;;;1.60;99.90;;;;;;4961568;28;20073;-91
2022/02/19 05:45:16;;;;;;;17.58;9.57;;;1.60;99.90;;;;;;4961127;28;20066;-92
2022/02/19 05:47:42;;;;;;;18.95;9.45;;;1.60;99.90;;;;;;4961057;28;20027;-91
2022/02/19 05:50:08;;;;;;;17.02;9.43;;;1.60;99.90;;;;;;4961420;28;20034;-90
2022/02/19 05:52:35;;;;;;;19.00;8.80;;;1.60;99.90;;;;;;4961157;28;20035;-91
2022/02/19 05:55:01;;;;;;;20.77;9.18;;;1.70;99.90;;;;;;4945949;28;20033;-91
2022/02/19 05:57:27;;;;;;;16.58;8.65;;;1.70;99.90;;;;;;4978401;28;20508;-92
2022/02/19 05:59:53;;;;;;;23.05;9.35;;;1.70;99.90;;;;;;4961102;28;20035;-91
2022/02/19 06:02:19;;;;;;;18.00;9.00;;;1.80;99.90;;;;;;4961132;28;20358;-91
2022/02/19 06:04:44;;;;;;;18.08;9.50;;;1.80;99.90;;;;;;4961207;28;20019;-90
2022/02/19 06:07:10;;;;;;;16.42;9.50;;;1.80;99.90;;;;;;4961308;28;20030;-90
2022/02/19 06:09:37;;;;;;;24.83;11.25;;;1.80;99.90;;;;;;4961046;28;20429;-91
2022/02/19 06:12:04;;;;;;;25.83;10.57;;;1.90;99.90;;;;;;4944905;28;20441;-90
2022/02/19 06:14:30;;;;;;;22.77;11.48;;;1.90;99.90;;;;;;4960749;28;20109;-90
2022/02/19 06:16:56;;;;;;;21.73;10.15;;;1.90;99.90;;;;;;4960349;28;20117;-90
2022/02/19 06:19:23;;;;;;;21.25;9.95;;;1.90;99.90;;;;;;4960176;28;20494;-90
2022/02/19 06:21:49;;;;;;;24.00;10.05;;;2.00;99.90;;;;;;4961004;28;20532;-89
2022/02/19 06:24:15;;;;;;;18.10;9.27;;;2.10;99.90;;;;;;4977542;28;20091;-90
2022/02/19 06:26:40;;;;;;;20.48;9.63;;;2.10;99.90;;;;;;4960566;28;20065;-91
2022/02/19 06:29:07;;;;;;;16.05;8.25;;;2.20;99.90;;;;;;4977734;28;20033;-91
2022/02/19 06:31:32;;;;;;;18.90;9.82;;;2.20;99.90;;;;;;4960046;28;20026;-90
2022/02/19 06:33:58;;;;;;;20.02;9.73;;;2.30;99.90;;;;;;4960162;28;20027;-90
2022/02/19 06:36:25;;;;;;;14.38;8.30;;;2.30;99.90;;;;;;4960557;28;20023;-89
2022/02/19 06:38:51;;;;;;;11.93;7.70;;;2.40;99.90;;;;;;4960257;28;20030;-89
2022/02/19 06:41:17;;;;;;;14.90;7.68;;;2.50;99.90;;;;;;4959968;28;20110;-90
2022/02/19 06:43:42;;;;;;;16.92;8.32;;;2.50;99.90;;;;;;4960240;28;20466;-90
2022/02/19 06:46:08;;;;;;;16.83;8.07;;;2.60;99.90;;;;;;4960062;28;20061;-90
2022/02/19 06:48:34;;;;;;;14.98;7.13;;;2.60;99.90;;;;;;4959676;28;20031;-89
2022/02/19 06:50:59;;;;;;;12.73;7.47;;;2.70;99.90;;;;;;4960034;28;20031;-90
2022/02/19 06:53:26;;;;;;;14.00;6.85;;;2.80;99.90;;;;;;4960040;28;20031;-90
2022/02/19 06:55:51;;;;;;;15.18;7.75;;;2.90;99.90;;;;;;4959944;28;20038;-90
2022/02/19 06:58:19;;;;;;;12.27;7.03;;;2.90;99.90;;;;;;4944229;28;20034;-90
2022/02/19 07:00:44;;;;;;;14.85;7.30;;;3.00;99.90;;;;;;4959981;28;20462;-91
2022/02/19 07:03:12;;;;;;;14.32;7.15;;;3.00;99.90;;;;;;4959935;28;20037;-91
2022/02/19 07:05:37;;;;;;;13.57;6.65;;;3.00;99.90;;;;;;4959710;28;20101;-90
2022/02/19 07:08:04;;;;;;;9.93;6.18;;;3.10;99.90;;;;;;4962385;28;20027;-90
2022/02/19 07:10:34;;;;;;;15.07;7.63;;;3.20;99.90;;;;;;4977975;28;20070;-91
2022/02/19 07:13:00;;;;;;;12.98;7.18;;;3.20;99.90;;;;;;4960065;28;20023;-90
2022/02/19 07:15:27;;;;;;;11.75;7.18;;;3.20;99.90;;;;;;4960064;28;20033;-90
2022/02/19 07:17:54;;;;;;;14.65;6.65;;;3.40;99.90;;;;;;4959504;28;20078;-91
2022/02/19 07:20:24;;;;;;;12.52;7.15;;;3.40;99.90;;;;;;4959576;28;20027;-90
2022/02/19 07:22:51;;;;;;;13.80;7.13;;;3.50;99.90;;;;;;4959492;28;20035;-92
2022/02/19 07:25:19;;;;;;;14.73;6.45;;;3.50;99.90;;;;;;4959564;28;20473;-90
2022/02/19 07:27:46;;;;;;;12.60;6.65;;;3.60;99.90;;;;;;4959694;28;20030;-90
2022/02/19 07:30:18;;;;;;;15.02;7.60;;;3.60;99.90;;;;;;4959550;28;20031;-90
2022/02/19 07:32:44;;;;;;;17.60;7.63;;;3.70;99.90;;;;;;4959559;28;20030;-90
2022/02/19 07:35:10;;;;;;;12.85;6.10;;;3.70;99.90;;;;;;4976728;28;20027;-90
2022/02/19 07:37:37;;;;;;;15.20;6.50;;;3.70;99.90;;;;;;4959687;28;20031;-90
2022/02/19 07:40:04;;;;;;;11.10;5.72;;;3.70;99.90;;;;;;4943520;28;20038;-90
2022/02/19 07:42:30;;;;;;;14.88;6.35;;;3.80;99.90;;;;;;4959287;28;20054;-90
2022/02/19 07:44:57;;;;;;;9.20;5.30;;;3.70;99.90;;;;;;4942865;28;20133;-93
2022/02/19 07:47:24;;;;;;;15.93;5.85;;;3.70;99.90;;;;;;4959316;28;20481;-90
2022/02/19 07:58:23;;;;;;;8.25;4.22;;;3.80;99.90;;;;;;4976891;28;20478;-90
2022/02/19 08:01:00;;;;;;;10.57;5.15;;;3.80;99.90;;;;;;4945039;28;20474;-90
2022/02/19 08:03:28;;;;;;;8.18;4.50;;;3.80;99.90;;;;;;4959627;28;20037;-90
2022/02/19 08:05:54;;;;;;;12.07;4.63;;;3.80;99.90;;;;;;4942798;28;20081;-93
2022/02/19 08:08:20;;;;;;;8.55;4.63;;;3.90;99.90;;;;;;4959215;28;20027;-92
2022/02/19 08:10:48;;;;;;;14.40;4.60;;;3.90;99.90;;;;;;4959068;28;20105;-92
2022/02/19 08:13:15;;;;;;;6.70;4.00;;;3.90;99.90;;;;;;4959098;28;20058;-94
2022/02/19 08:15:41;;;;;;;8.40;4.20;;;4.00;99.90;;;;;;4958550;28;20428;-94
2022/02/19 08:18:11;;;;;;;9.00;4.97;;;4.00;99.90;;;;;;4959245;28;20035;-92
2022/02/19 08:20:41;;;;;;;10.60;5.43;;;4.10;99.90;;;;;;4958548;28;20079;-92
2022/02/19 08:23:10;;;;;;;15.00;5.70;;;4.10;99.90;;;;;;4959439;28;20378;-93
2022/02/19 08:25:37;;;;;;;14.68;5.43;;;4.10;99.90;;;;;;4958798;28;20030;-94
2022/02/19 08:28:05;;;;;;;11.40;4.78;;;4.20;99.90;;;;;;4959430;28;20418;-93
2022/02/19 08:30:35;;;;;;;8.55;4.40;;;4.20;99.90;;;;;;4943213;28;20030;-94
2022/02/19 08:33:04;;;;;;;10.07;4.22;;;4.30;99.90;;;;;;4958829;28;20026;-94
2022/02/19 08:35:36;;;;;;;11.43;4.70;;;4.30;99.90;;;;;;4963912;28;20030;-94
2022/02/19 08:38:17;;;;;;;7.88;4.63;;;4.40;99.90;;;;;;4985251;28;20026;-96
2022/02/19 08:40:47;;;;;;;17.80;5.63;;;4.50;99.90;;;;;;4959207;28;20034;-96
2022/02/19 08:43:13;;;;;;;13.52;5.55;;;4.60;99.90;;;;;;4961794;28;20031;-96
2022/02/19 08:45:42;;;;;;;10.80;4.78;;;4.70;99.90;;;;;;4979859;28;20466;-96
2022/02/19 08:48:12;;;;;;;7.93;4.45;;;4.90;99.90;;;;;;4961017;28;20166;-95
2022/02/19 08:50:40;;;;;;;10.45;4.18;;;5.00;99.20;;;;;;4962121;28;20034;-96
2022/02/19 08:53:16;;;;;;;11.93;4.85;;;5.30;99.40;;;;;;4945411;28;20055;-95
2022/02/19 08:55:42;;;;;;;8.98;4.43;;;5.30;98.30;;;;;;4960700;28;20058;-96
2022/02/19 08:58:09;;;;;;;9.38;4.40;;;5.40;98.60;;;;;;4960304;28;20033;-96
2022/02/19 09:00:42;;;;;;;10.23;3.90;;;5.50;98.40;;;;;;4977681;28;20031;-96
2022/02/19 09:03:41;;;;;;;8.20;3.90;;;5.50;98.10;;;;;;4981136;28;20110;-96
2022/02/19 09:06:10;;;;;;;9.05;4.38;;;5.60;97.30;;;;;;4971239;28;20031;-95
2022/02/19 09:08:36;;;;;;;11.57;4.78;;;5.50;97.30;;;;;;4967367;28;20034;-96
2022/02/19 09:11:03;;;;;;;9.52;4.32;;;5.60;97.60;;;;;;4964062;28;20034;-96
2022/02/19 09:13:32;;;;;;;7.47;4.47;;;5.60;96.80;;;;;;4985611;28;20512;-95
2022/02/19 09:15:59;;;;;;;9.73;4.13;;;5.70;96.70;;;;;;4965346;28;20121;-96
2022/02/19 09:18:31;;;;;;;5.70;3.55;;;5.70;96.40;;;;;;4967565;28;20138;-96
2022/02/19 09:20:57;;;;;;;6.25;3.67;;;5.60;96.30;;;;;;4953267;28;20027;-94
2022/02/19 09:23:29;;;;;;;8.65;3.90;;;5.50;96.40;;;;;;4965759;28;20091;-95
2022/02/19 09:26:14;;;;;;;8.48;3.40;;;5.60;96.40;;;;;;4980766;28;20029;-96
2022/02/19 09:28:40;;;;;;;9.38;3.85;;;5.60;96.30;;;;;;4962876;28;20121;-96
2022/02/19 09:31:11;;;;;;;8.80;3.90;;;5.60;96.20;;;;;;4964006;28;20045;-96
2022/02/19 09:33:39;;;;;;;;;;;5.60;95.70;;;;;;4949549;28;20473;-96
2022/02/19 09:36:06;;;;;;;8.20;4.18;;;5.70;96.10;;;;;;4964723;28;19960;-96
2022/02/19 09:38:32;;;;;;;9.30;4.15;;;5.80;95.50;;;;;;4965449;28;20117;-94
2022/02/19 09:41:00;;;;;;;7.72;3.88;;;5.90;95.20;;;;;;4964278;28;20065;-95
2022/02/19 09:43:29;;;;;;;5.32;3.25;;;5.90;95.10;;;;;;4983973;28;20054;-94
2022/02/19 09:45:57;;;;;;;7.20;3.67;;;5.90;95.00;;;;;;4961436;28;20030;-94
2022/02/19 09:48:25;;;;;;;6.05;4.00;;;5.90;95.20;;;;;;4948744;28;20473;-96
2022/02/19 09:50:51;;;;;;;4.13;2.97;;;5.90;94.40;;;;;;4964701;28;20033;-94
2022/02/19 09:53:21;;;;;;;8.30;3.53;;;5.90;94.20;;;;;;4948667;28;20037;-96
2022/02/19 09:55:46;;;;;;;6.65;3.58;;;5.80;94.20;;;;;;4963995;28;20105;-94
2022/02/19 09:58:12;;;;;;;5.95;4.13;;;5.80;94.30;;;;;;4962636;28;20448;-96
2022/02/19 10:00:46;;;;;;;8.60;4.20;;;5.70;94.20;;;;;;4963808;28;20033;-94
2022/02/19 10:03:35;;;;;;;8.02;3.83;;;5.70;93.90;;;;;;4982437;28;20027;-96
2022/02/19 10:06:33;;;;;;;6.75;3.45;;;5.80;94.30;;;;;;4967322;28;20023;-96
2022/02/19 10:09:17;;;;;;;6.03;3.63;;;5.80;94.70;;;;;;4963919;28;20030;-94
2022/02/19 10:11:47;;;;;;;8.23;4.18;;;5.90;94.50;;;;;;4967933;28;20022;-94
2022/02/19 10:14:26;;;;;;;;;;;5.90;94.30;;;;;;4963795;28;20030;-95
2022/02/19 10:17:15;;;;;;;13.98;7.40;;;6.00;94.00;;;;;;4965432;28;19984;-93
2022/02/19 10:19:54;;;;;;;11.77;5.97;;;6.00;94.10;;;;;;4962427;28;20055;-95
2022/02/19 10:22:25;;;;;;;9.60;4.60;;;6.00;94.20;;;;;;4963015;28;20029;-96
2022/02/19 10:24:56;;;;;;;6.28;3.75;;;6.00;94.40;;;;;;4962482;28;20030;-94
2022/02/19 10:27:22;;;;;;;4.43;3.47;;;5.90;94.40;;;;;;4947384;28;20094;-94
2022/02/19 10:29:53;;;;;;;7.45;3.67;;;5.80;94.30;;;;;;4961485;28;20027;-93
2022/02/19 10:32:24;;;;;;;13.43;5.50;;;5.80;95.00;;;;;;4961664;28;20027;-94
2022/02/19 10:35:08;;;;;;;8.35;4.00;;;5.70;95.00;;;;;;4962105;28;20035;-93
2022/02/19 10:37:51;;;;;;;9.30;4.57;;;5.80;94.90;;;;;;4962215;28;20030;-96
2022/02/19 10:40:47;;;;;;;12.05;4.38;;;5.80;95.00;;;;;;4970471;28;20034;-96
2022/02/19 10:43:20;;;;;;;9.75;4.10;;;5.90;94.80;;;;;;4985618;28;20106;-96
2022/02/19 10:45:57;;;;;;;10.32;4.40;;;5.90;95.20;;;;;;4950307;28;20023;-96
2022/02/19 10:48:25;;;;;;;9.90;4.20;;;5.90;95.10;;;;;;4963210;28;20335;-96
2022/02/19 10:50:51;;;;;;;7.55;4.50;;;6.00;95.40;;;;;;4961927;28;20026;-96
2022/02/19 10:53:43;;;;;;;7.03;4.60;;;6.00;95.40;;;;;;4946522;28;20062;-96
2022/02/19 10:56:18;;;;;;;8.27;4.30;;;5.90;95.50;;;;;;4922567;28;20122;-93
2022/02/19 10:59:03;;;;;;;9.20;4.15;;;5.90;95.50;;;;;;4964018;28;20031;-96
2022/02/19 11:01:43;;;;;;;5.50;3.85;;;5.90;95.70;;;;;;4962707;28;20034;-96
2022/02/19 11:04:14;;;;;;;6.97;4.38;;;5.80;95.90;;;;;;4960789;28;20027;-94
2022/02/19 11:06:42;;;;;;;10.98;4.72;;;5.70;96.70;;;;;;4956823;28;20031;-92
2022/02/19 11:09:11;;;;;;;7.05;4.07;;;5.70;97.00;;;;;;4961133;28;20381;-94
2022/02/19 11:11:39;;;;;;;7.18;4.15;;;5.70;97.10;;;;;;4962024;28;20369;-91
2022/02/19 11:14:07;;;;;;;11.13;6.45;;;5.60;97.20;;;;;;4944532;28;20109;-94
2022/02/19 11:16:34;;;;;;;17.58;8.80;;;5.60;97.80;;;;;;4977024;28;20038;-93
2022/02/19 11:19:01;;;;;;;19.42;9.10;;;5.60;97.70;;;;;;4960749;28;20500;-96
2022/02/19 11:21:29;;;;;;;21.65;9.68;;;5.60;97.80;;;;;;4960723;28;20118;-94
2022/02/19 11:23:59;;;;;;;15.00;7.40;;;5.60;98.00;;;;;;4968116;28;20369;-94
2022/02/19 11:26:38;;;;;;;14.07;7.30;;;5.70;97.90;;;;;;4949369;28;20022;-96
2022/02/19 11:29:14;;;;;;;11.27;6.13;;;5.60;98.00;;;;;;4965031;28;20035;-96
2022/02/19 11:31:42;;;;;;;13.60;6.80;;;5.60;98.00;;;;;;4961263;28;20023;-92
2022/02/19 11:34:20;;;;;;;10.73;5.47;;;5.60;98.00;;;;;;4946220;28;20035;-96
2022/02/19 11:36:55;;;;;;;11.10;6.07;;;5.70;97.70;;;;;;4949216;28;20066;-95
2022/02/19 11:39:23;;;;;;;9.75;5.47;;;5.80;97.50;;;;;;4960564;28;20073;-94
2022/02/19 11:41:49;;;;;;;15.38;7.50;;;5.90;97.80;;;;;;4961108;28;20023;-96
2022/02/19 11:44:21;;;;;;;17.58;7.70;;;5.90;98.00;;;;;;4962950;28;20025;-94
2022/02/19 11:46:48;;;;;;;9.63;6.10;;;5.90;97.50;;;;;;4962513;28;20029;-95
2022/02/19 11:49:24;;;;;;;17.17;7.53;;;6.00;98.20;;;;;;4945053;28;20489;-96
2022/02/19 11:52:01;;;;;;;6.43;4.15;;;6.10;98.20;;;;;;4960542;28;20030;-96
2022/02/19 11:54:28;;;;;;;7.40;4.32;;;6.20;98.10;;;;;;4960708;28;20030;-95
2022/02/19 11:56:54;;;;;;;11.43;6.43;;;6.20;97.80;;;;;;4960495;28;20023;-95
2022/02/19 11:59:21;;;;;;;19.27;9.55;;;6.30;97.80;;;;;;4960076;28;20117;-95
2022/02/19 12:02:12;;;;;;;11.60;5.85;;;6.30;97.80;;;;;;4959115;28;20031;-96
2022/02/19 12:04:38;;;;;;;15.88;8.65;;;6.30;97.40;;;;;;4960168;28;20050;-95
2022/02/19 12:07:07;;;;;;;15.48;8.77;;;6.20;97.40;;;;;;4960486;28;20385;-95
2022/02/19 12:09:53;;;;;;;11.65;6.38;;;6.30;97.40;;;;;;4959936;28;20027;-95
2022/02/19 12:12:20;;;;;;;21.15;9.32;;;6.30;97.40;;;;;;4945895;28;20066;-94
2022/02/19 12:14:49;;;;;;;23.90;12.27;;;6.30;97.60;;;;;;4958855;28;20039;-88
2022/02/19 12:17:20;;;;;;;17.27;10.03;;;6.30;97.40;;;;;;4959368;28;20532;-92
2022/02/19 12:19:56;;;;;;;16.42;8.25;;;6.40;97.50;;;;;;4957214;28;20051;-94
2022/02/19 12:22:41;;;;;;;17.80;9.88;;;6.40;97.70;;;;;;4959613;28;20030;-96
2022/02/19 12:25:12;;;;;;;22.83;11.07;;;6.40;97.30;;;;;;4960509;28;20470;-94
2022/02/19 12:27:40;;;;;;;18.85;9.73;;;6.40;97.40;;;;;;4960232;28;20027;-94
2022/02/19 12:30:28;;;;;;;11.75;7.82;;;6.40;97.70;;;;;;4963187;28;20037;-94
2022/02/19 12:32:59;;;;;;;9.35;4.82;;;6.40;97.80;;;;;;4958959;28;20421;-93
2022/02/19 12:35:35;;;;;;;10.02;4.82;;;6.40;97.90;;;;;;4958570;28;20081;-95
2022/02/19 12:38:02;;;;;;;14.43;4.72;;;6.40;97.90;;;;;;4958811;28;20058;-95
2022/02/19 12:40:29;;;;;;;6.72;3.90;;;6.40;97.60;;;;;;4958780;28;20082;-93
2022/02/19 12:42:56;;;;;;;9.38;5.10;;;6.40;97.90;;;;;;4959735;28;20027;-94
2022/02/19 12:45:21;;;;;;;11.82;5.57;;;6.40;98.10;;;;;;4959028;28;20046;-95
2022/02/19 12:47:48;;;;;;;6.72;4.05;;;6.40;98.60;;;;;;4958464;28;20069;-94
2022/02/19 12:51:04;;;;;;;9.75;5.13;;;6.30;99.10;;;;;;4976872;28;20034;-95
2022/02/19 12:53:31;;;;;;;19.10;9.68;;;6.30;99.90;;;;;;4958413;28;20023;-94
2022/02/19 12:55:58;;;;;;;18.33;9.10;;;6.30;99.90;;;;;;4959282;28;20065;-92
2022/02/19 12:58:25;;;;;;;17.85;7.38;;;6.30;99.90;;;;;;4975811;28;20023;-94